Time;durP1;ratioP1;P1;durP2;ratioP2;P2;SDS_P1;SDS_P2;PMS_P1;PMS_P2;Temp;Humidity;BMP_temperature;BMP_pressure;BME280_temperature;BME280_humidity;BME280_pressure;Samples;Min_cycle;Max_cycle;Signal;HPM_P1;HPM_P2
2021/10/04 00:02:00;;;;;;;7.40;6.65;;;;;;;;;;5035556;28;20191;-46
2021/10/04 00:04:26;;;;;;;7.97;6.45;;;;;;;;;;5032946;28;20229;-46
2021/10/04 00:06:52;;;;;;;8.77;7.10;;;;;;;;;;5027190;28;20572;-46
2021/10/04 00:09:18;;;;;;;7.90;7.07;;;;;;;;;;5020775;28;20195;-46
2021/10/04 00:11:44;;;;;;;7.80;7.00;;;;;;;;;;5017402;28;20184;-46
2021/10/04 00:14:10;;;;;;;7.50;6.80;;;;;;;;;;5025966;28;20579;-46
2021/10/04 00:16:36;;;;;;;7.60;6.90;;;;;;;;;;5035035;28;20184;-46
2021/10/04 00:19:02;;;;;;;9.48;7.20;;;;;;;;;;5019120;28;20225;-46
2021/10/04 00:21:29;;;;;;;7.80;6.78;;;;;;;;;;5015759;28;20454;-46
2021/10/04 00:23:55;;;;;;;7.05;6.35;;;;;;;;;;5015194;28;20199;-46
2021/10/04 00:26:21;;;;;;;7.53;6.57;;;;;;;;;;5015366;28;20204;-46
2021/10/04 00:28:47;;;;;;;7.63;6.85;;;;;;;;;;5029011;28;20606;-46
2021/10/04 00:31:13;;;;;;;7.93;6.93;;;;;;;;;;5024397;28;20275;-46
2021/10/04 00:33:39;;;;;;;7.63;6.38;;;;;;;;;;5021363;28;20191;-46
2021/10/04 00:36:05;;;;;;;7.28;6.57;;;;;;;;;;5025549;28;20284;-46
2021/10/04 00:38:31;;;;;;;7.43;6.63;;;;;;;;;;5032915;28;20180;-46
2021/10/04 00:40:57;;;;;;;8.15;6.72;;;;;;;;;;5027646;28;20633;-46
2021/10/04 00:43:23;;;;;;;7.82;6.95;;;;;;;;;;5015005;28;20291;-46
2021/10/04 00:45:49;;;;;;;7.97;6.63;;;;;;;;;;5015867;28;20180;-46
2021/10/04 00:48:16;;;;;;;7.70;6.80;;;;;;;;;;5015456;28;20599;-46
2021/10/04 00:50:43;;;;;;;7.85;7.05;;;;;;;;;;5015315;28;20169;-46
2021/10/04 00:53:10;;;;;;;6.68;6.05;;;;;;;;;;5033322;28;20517;-46
2021/10/04 00:55:36;;;;;;;7.45;6.75;;;;;;;;;;5018306;28;20552;-46
2021/10/04 00:58:02;;;;;;;6.97;6.35;;;;;;;;;;5023891;28;20204;-46
2021/10/04 01:00:29;;;;;;;7.43;6.55;;;;;;;;;;5016345;28;20222;-46
2021/10/04 01:02:55;;;;;;;7.53;6.75;;;;;;;;;;5022957;28;20192;-46
2021/10/04 01:05:21;;;;;;;7.95;6.80;;;;;;;;;;5029647;28;20176;-46
2021/10/04 01:07:47;;;;;;;7.40;6.70;;;;;;;;;;5014993;28;20208;-46
2021/10/04 01:10:13;;;;;;;7.65;6.85;;;;;;;;;;5020933;28;20242;-46
2021/10/04 01:12:41;;;;;;;7.55;6.70;;;;;;;;;;5029166;28;20610;-46
2021/10/04 01:15:07;;;;;;;6.88;6.18;;;;;;;;;;5014250;28;20271;-46
2021/10/04 01:17:33;;;;;;;7.25;6.55;;;;;;;;;;5014840;28;20499;-46
2021/10/04 01:20:06;;;;;;;7.18;6.47;;;;;;;;;;5016231;28;20595;-46
2021/10/04 01:22:32;;;;;;;7.55;6.43;;;;;;;;;;5021681;28;20188;-46
2021/10/04 01:24:58;;;;;;;7.10;6.40;;;;;;;;;;5027985;28;20199;-46
2021/10/04 01:27:24;;;;;;;6.97;6.28;;;;;;;;;;5014539;28;20207;-46
2021/10/04 01:29:50;;;;;;;7.07;6.30;;;;;;;;;;5021080;28;20263;-46
2021/10/04 01:32:16;;;;;;;7.18;6.47;;;;;;;;;;5033210;28;20547;-46
2021/10/04 01:34:42;;;;;;;8.27;5.93;;;;;;;;;;5014069;28;20172;-46
2021/10/04 01:37:08;;;;;;;6.07;5.47;;;;;;;;;;5014672;28;20188;-46
2021/10/04 01:39:34;;;;;;;7.80;6.10;;;;;;;;;;5015473;28;20181;-46
2021/10/04 01:42:00;;;;;;;6.22;5.63;;;;;;;;;;5015432;28;20532;-46
2021/10/04 01:44:26;;;;;;;6.43;5.75;;;;;;;;;;5024202;28;20198;-46
2021/10/04 01:46:52;;;;;;;6.65;5.95;;;;;;;;;;5014500;28;20250;-46
2021/10/04 01:49:18;;;;;;;6.35;5.60;;;;;;;;;;5032462;28;20206;-46
2021/10/04 01:51:45;;;;;;;6.40;5.80;;;;;;;;;;5036497;28;20172;-46
2021/10/04 01:54:11;;;;;;;7.38;5.85;;;;;;;;;;5026066;28;20219;-46
2021/10/04 01:56:37;;;;;;;6.70;5.32;;;;;;;;;;5036964;28;20180;-46
2021/10/04 01:59:03;;;;;;;7.68;5.85;;;;;;;;;;5026576;28;20188;-46
2021/10/04 02:01:30;;;;;;;6.28;5.68;;;;;;;;;;5036156;28;20610;-46
2021/10/04 02:03:57;;;;;;;6.82;6.07;;;;;;;;;;5031594;28;20184;-46
2021/10/04 02:06:23;;;;;;;5.45;4.95;;;;;;;;;;5036170;28;20249;-46
2021/10/04 02:08:49;;;;;;;6.78;5.35;;;;;;;;;;5036689;28;20188;-46
2021/10/04 02:11:15;;;;;;;6.47;4.82;;;;;;;;;;5035892;28;20477;-46
2021/10/04 02:13:41;;;;;;;5.32;4.85;;;;;;;;;;5020190;28;20238;-46
2021/10/04 02:16:07;;;;;;;5.68;4.80;;;;;;;;;;5030287;28;20242;-46
2021/10/04 02:18:33;;;;;;;5.32;4.82;;;;;;;;;;5023207;28;20176;-46
2021/10/04 02:20:59;;;;;;;5.72;4.90;;;;;;;;;;5018178;28;20231;-46
2021/10/04 02:23:25;;;;;;;5.43;4.93;;;;;;;;;;5017317;28;20188;-46
2021/10/04 02:25:54;;;;;;;5.25;4.78;;;;;;;;;;5026976;28;20198;-46
2021/10/04 02:28:20;;;;;;;5.38;4.88;;;;;;;;;;5032776;28;20596;-46
2021/10/04 02:30:47;;;;;;;5.22;4.72;;;;;;;;;;5021282;28;20202;-46
2021/10/04 02:33:13;;;;;;;5.05;4.55;;;;;;;;;;5026534;28;20176;-46
2021/10/04 02:35:39;;;;;;;5.15;4.65;;;;;;;;;;5036044;28;20191;-46
2021/10/04 02:38:06;;;;;;;5.18;4.68;;;;;;;;;;5020972;28;20184;-46
2021/10/04 02:40:32;;;;;;;5.25;4.75;;;;;;;;;;5017334;28;20176;-46
2021/10/04 02:42:58;;;;;;;5.15;4.65;;;;;;;;;;5025453;28;20208;-46
2021/10/04 02:45:24;;;;;;;4.82;4.35;;;;;;;;;;5019025;28;20595;-46
2021/10/04 02:47:52;;;;;;;5.18;4.68;;;;;;;;;;5032219;28;20298;-46
2021/10/04 02:50:19;;;;;;;5.20;4.30;;;;;;;;;;5036635;28;20190;-46
2021/10/04 02:52:45;;;;;;;4.82;4.30;;;;;;;;;;5035426;28;20225;-46
2021/10/04 02:55:12;;;;;;;4.85;4.38;;;;;;;;;;5024674;28;20177;-46
2021/10/04 02:57:38;;;;;;;6.45;4.75;;;;;;;;;;5017446;28;20450;-46
2021/10/04 03:00:06;;;;;;;5.10;4.28;;;;;;;;;;5033363;28;20249;-46
2021/10/04 03:02:32;;;;;;;5.75;5.10;;;;;;;;;;5030210;28;20387;-46
2021/10/04 03:04:58;;;;;;;5.32;4.57;;;;;;;;;;5028543;28;20191;-46
2021/10/04 03:07:25;;;;;;;5.75;4.40;;;;;;;;;;5029291;28;20203;-46
2021/10/04 03:09:52;;;;;;;5.15;4.57;;;;;;;;;;5030711;28;20194;-46
2021/10/04 03:12:18;;;;;;;4.40;3.95;;;;;;;;;;5023868;28;20168;-46
2021/10/04 03:14:44;;;;;;;6.15;4.78;;;;;;;;;;5024168;28;20586;-46
2021/10/04 03:17:10;;;;;;;4.60;4.20;;;;;;;;;;5032904;28;20185;-46
2021/10/04 03:19:36;;;;;;;5.32;4.25;;;;;;;;;;5032930;28;20177;-46
2021/10/04 03:22:02;;;;;;;4.50;4.10;;;;;;;;;;5018489;28;20173;-46
2021/10/04 03:24:28;;;;;;;4.35;3.95;;;;;;;;;;5035255;28;20543;-46
2021/10/04 03:26:54;;;;;;;4.60;4.20;;;;;;;;;;5036279;28;20231;-46
2021/10/04 03:29:20;;;;;;;4.90;4.40;;;;;;;;;;5034921;28;20179;-46
2021/10/04 03:31:49;;;;;;;4.85;4.18;;;;;;;;;;5022461;28;20173;-46
2021/10/04 03:34:15;;;;;;;4.47;4.07;;;;;;;;;;5019544;28;20177;-46
2021/10/04 03:36:42;;;;;;;4.72;4.32;;;;;;;;;;5023413;28;20195;-46
2021/10/04 03:39:08;;;;;;;5.50;4.90;;;;;;;;;;5030090;28;20513;-46
2021/10/04 03:41:35;;;;;;;4.57;4.15;;;;;;;;;;5032899;28;20211;-46
2021/10/04 03:44:01;;;;;;;4.82;3.95;;;;;;;;;;5020921;28;20216;-46
2021/10/04 03:46:27;;;;;;;4.40;4.00;;;;;;;;;;5034286;28;20622;-46
2021/10/04 03:48:53;;;;;;;4.75;4.32;;;;;;;;;;5030875;28;20195;-47
2021/10/04 03:51:19;;;;;;;4.28;3.85;;;;;;;;;;5018021;28;20183;-46
2021/10/04 03:53:45;;;;;;;4.97;3.88;;;;;;;;;;5027295;28;20433;-46
2021/10/04 03:56:11;;;;;;;4.57;4.03;;;;;;;;;;5015983;28;20169;-46
2021/10/04 03:58:37;;;;;;;4.30;3.90;;;;;;;;;;5021861;28;20176;-46
2021/10/04 04:01:04;;;;;;;6.80;4.78;;;;;;;;;;5023991;28;20261;-46
2021/10/04 04:03:30;;;;;;;5.78;4.15;;;;;;;;;;5028359;28;20184;-46
2021/10/04 04:05:56;;;;;;;6.28;4.50;;;;;;;;;;5033875;28;20179;-46
2021/10/04 04:08:23;;;;;;;13.30;4.93;;;;;;;;;;5022239;28;20595;-46
2021/10/04 04:10:50;;;;;;;7.80;4.45;;;;;;;;;;5019025;28;20579;-46
2021/10/04 04:13:16;;;;;;;6.03;4.65;;;;;;;;;;5032879;28;20179;-46
2021/10/04 04:15:42;;;;;;;6.82;4.57;;;;;;;;;;5035435;28;20180;-46
2021/10/04 04:18:08;;;;;;;5.93;4.28;;;;;;;;;;5019113;28;20188;-46
2021/10/04 04:20:34;;;;;;;5.32;4.10;;;;;;;;;;5015623;28;20179;-46
2021/10/04 04:23:00;;;;;;;6.38;4.47;;;;;;;;;;5015136;28;20191;-46
2021/10/04 04:25:26;;;;;;;9.77;4.47;;;;;;;;;;5027001;28;20246;-46
2021/10/04 04:27:52;;;;;;;8.75;5.07;;;;;;;;;;5028079;28;20216;-46
2021/10/04 04:30:18;;;;;;;13.35;5.38;;;;;;;;;;5019158;28;20167;-46
2021/10/04 04:32:45;;;;;;;11.15;5.75;;;;;;;;;;5029128;28;20186;-46
2021/10/04 04:35:11;;;;;;;18.10;6.03;;;;;;;;;;5015147;28;20207;-46
2021/10/04 04:37:39;;;;;;;10.63;5.88;;;;;;;;;;5015433;28;20185;-46
2021/10/04 04:40:06;;;;;;;17.38;6.47;;;;;;;;;;5015492;28;20216;-46
2021/10/04 04:42:32;;;;;;;10.60;5.57;;;;;;;;;;5015211;28;20235;-46
2021/10/04 04:44:58;;;;;;;11.50;5.80;;;;;;;;;;5019439;28;20681;-46
2021/10/04 04:47:24;;;;;;;17.60;5.43;;;;;;;;;;5014768;28;20220;-46
2021/10/04 04:49:50;;;;;;;5.93;4.55;;;;;;;;;;5015199;28;20230;-46
2021/10/04 04:52:16;;;;;;;7.55;5.00;;;;;;;;;;5024419;28;20171;-46
2021/10/04 04:54:42;;;;;;;7.82;5.10;;;;;;;;;;5027669;28;20555;-46
2021/10/04 04:57:08;;;;;;;8.32;4.90;;;;;;;;;;5034113;28;20540;-46
2021/10/04 04:59:34;;;;;;;7.95;5.10;;;;;;;;;;5033191;28;20171;-46
2021/10/04 05:02:01;;;;;;;7.40;4.38;;;;;;;;;;5033706;28;20184;-46
2021/10/04 05:04:30;;;;;;;7.00;4.80;;;;;;;;;;5019105;28;20238;-46
2021/10/04 05:06:56;;;;;;;8.30;4.57;;;;;;;;;;5024276;28;20192;-46
2021/10/04 05:09:22;;;;;;;5.68;4.43;;;;;;;;;;5033843;28;20204;-46
2021/10/04 05:11:48;;;;;;;9.02;4.57;;;;;;;;;;5024127;28;20185;-46
2021/10/04 05:14:14;;;;;;;5.30;4.43;;;;;;;;;;5029888;28;20187;-46
2021/10/04 05:16:40;;;;;;;6.90;4.15;;;;;;;;;;5033957;28;20217;-46
2021/10/04 05:19:06;;;;;;;5.55;4.13;;;;;;;;;;5033687;28;20229;-46
2021/10/04 05:21:33;;;;;;;6.03;4.32;;;;;;;;;;5030595;28;20188;-46
2021/10/04 05:23:59;;;;;;;6.43;4.00;;;;;;;;;;5026898;28;20207;-46
2021/10/04 05:26:24;;;;;;;9.15;4.40;;;;;;;;;;5018013;28;20548;-46
2021/10/04 05:28:51;;;;;;;5.70;4.50;;;;;;;;;;5037063;28;20188;-46
2021/10/04 05:31:17;;;;;;;5.95;4.30;;;;;;;;;;5023428;28;20287;-46
2021/10/04 05:33:43;;;;;;;4.82;4.25;;;;;;;;;;5018438;28;20603;-46
2021/10/04 05:36:09;;;;;;;6.13;4.20;;;;;;;;;;5019607;28;20203;-46
2021/10/04 05:38:35;;;;;;;5.90;4.35;;;;;;;;;;5017998;28;20184;-46
2021/10/04 05:41:01;;;;;;;6.43;4.03;;;;;;;;;;5017710;28;20182;-46
2021/10/04 05:43:27;;;;;;;5.72;4.05;;;;;;;;;;5020035;28;20185;-46
2021/10/04 05:45:53;;;;;;;5.65;4.25;;;;;;;;;;5032690;28;20205;-46
2021/10/04 05:48:19;;;;;;;5.72;3.80;;;;;;;;;;5018431;28;20204;-46
2021/10/04 05:50:45;;;;;;;5.80;4.05;;;;;;;;;;5018352;28;20560;-46
2021/10/04 05:53:12;;;;;;;5.63;3.90;;;;;;;;;;5027154;28;20172;-46
2021/10/04 05:55:38;;;;;;;6.22;3.92;;;;;;;;;;5024424;28;20183;-46
2021/10/04 05:58:04;;;;;;;5.35;4.10;;;;;;;;;;5032486;28;20223;-46
2021/10/04 06:00:30;;;;;;;4.75;3.67;;;;;;;;;;5017996;28;20627;-46
2021/10/04 06:02:56;;;;;;;5.13;3.70;;;;;;;;;;5035251;28;20196;-46
2021/10/04 06:05:22;;;;;;;3.95;3.55;;;;;;;;;;5036929;28;20271;-46
2021/10/04 06:07:48;;;;;;;4.38;3.67;;;;;;;;;;5037361;28;20243;-46
2021/10/04 06:10:16;;;;;;;4.22;3.83;;;;;;;;;;5030315;28;20226;-46
2021/10/04 06:12:42;;;;;;;3.80;3.28;;;;;;;;;;5017699;28;20184;-46
2021/10/04 06:15:09;;;;;;;4.50;3.78;;;;;;;;;;5017987;28;20239;-46
2021/10/04 06:17:36;;;;;;;4.18;3.30;;;;;;;;;;5016487;28;20271;-46
2021/10/04 06:20:02;;;;;;;3.83;3.53;;;;;;;;;;5017764;28;20176;-46
2021/10/04 06:22:28;;;;;;;4.20;3.53;;;;;;;;;;5017096;28;20184;-46
2021/10/04 06:24:54;;;;;;;3.60;3.30;;;;;;;;;;5036664;28;20253;-46
2021/10/04 06:27:20;;;;;;;3.15;2.88;;;;;;;;;;5019248;28;20250;-46
2021/10/04 06:29:46;;;;;;;3.33;3.03;;;;;;;;;;5018090;28;20276;-46
2021/10/04 06:32:12;;;;;;;5.30;3.15;;;;;;;;;;5021784;28;20606;-47
2021/10/04 06:34:38;;;;;;;4.93;3.40;;;;;;;;;;5033230;28;20205;-46
2021/10/04 06:37:04;;;;;;;3.45;3.15;;;;;;;;;;5035597;28;20267;-46
2021/10/04 06:39:31;;;;;;;4.18;3.03;;;;;;;;;;5017831;28;20189;-46
2021/10/04 06:41:56;;;;;;;3.90;2.70;;;;;;;;;;5017274;28;20512;-46
2021/10/04 06:44:22;;;;;;;3.05;2.63;;;;;;;;;;5016859;28;20284;-46
2021/10/04 06:46:48;;;;;;;3.03;2.72;;;;;;;;;;5016573;28;20527;-46
2021/10/04 06:49:15;;;;;;;3.95;2.78;;;;;;;;;;5021924;28;20218;-46
2021/10/04 06:51:41;;;;;;;3.90;3.40;;;;;;;;;;5036244;28;20290;-46
2021/10/04 06:54:07;;;;;;;3.47;2.75;;;;;;;;;;5030262;28;20644;-46
2021/10/04 06:56:33;;;;;;;3.10;2.90;;;;;;;;;;5016933;28;20465;-47
2021/10/04 06:58:59;;;;;;;2.75;2.55;;;;;;;;;;5017292;28;20168;-46
2021/10/04 07:01:25;;;;;;;2.92;2.40;;;;;;;;;;5016829;28;20299;-46
2021/10/04 07:03:51;;;;;;;5.40;2.80;;;;;;;;;;5025818;28;20249;-46
2021/10/04 07:06:17;;;;;;;3.33;2.70;;;;;;;;;;5034823;28;20180;-46
2021/10/04 07:08:43;;;;;;;2.72;2.53;;;;;;;;;;5035887;28;20183;-46
2021/10/04 07:11:09;;;;;;;4.40;2.40;;;;;;;;;;5027151;28;20181;-46
2021/10/04 07:13:38;;;;;;;2.80;2.55;;;;;;;;;;5015707;28;20177;-46
2021/10/04 07:16:04;;;;;;;2.63;2.38;;;;;;;;;;5016688;28;20266;-46
2021/10/04 07:18:30;;;;;;;2.85;2.33;;;;;;;;;;5029677;28;20175;-46
2021/10/04 07:20:56;;;;;;;3.70;2.25;;;;;;;;;;5035942;28;20175;-46
2021/10/04 07:23:22;;;;;;;2.40;2.20;;;;;;;;;;5024838;28;20192;-46
2021/10/04 07:25:48;;;;;;;3.90;2.42;;;;;;;;;;5016132;28;20185;-46
2021/10/04 07:28:14;;;;;;;2.20;2.00;;;;;;;;;;5034145;28;20239;-46
2021/10/04 07:30:40;;;;;;;2.85;2.20;;;;;;;;;;5025082;28;20304;-46
2021/10/04 07:33:07;;;;;;;2.53;1.90;;;;;;;;;;5029363;28;20559;-46
2021/10/04 07:35:33;;;;;;;2.50;1.83;;;;;;;;;;5025093;28;20181;-46
2021/10/04 07:37:59;;;;;;;2.28;2.08;;;;;;;;;;5017283;28;20181;-46
2021/10/04 07:40:25;;;;;;;2.50;2.30;;;;;;;;;;5016628;28;20176;-46
2021/10/04 07:42:51;;;;;;;2.42;2.20;;;;;;;;;;5015704;28;20168;-46
2021/10/04 07:45:17;;;;;;;2.00;1.80;;;;;;;;;;5016148;28;20502;-46
2021/10/04 07:47:44;;;;;;;2.08;1.88;;;;;;;;;;5032495;28;20203;-46
2021/10/04 07:50:10;;;;;;;2.95;1.98;;;;;;;;;;5030647;28;20203;-46
2021/10/04 07:52:37;;;;;;;1.90;1.80;;;;;;;;;;5016081;28;20169;-46
2021/10/04 07:55:05;;;;;;;1.90;1.80;;;;;;;;;;5027624;28;20180;-46
2021/10/04 07:57:31;;;;;;;2.20;2.00;;;;;;;;;;5035887;28;20178;-46
2021/10/04 07:59:57;;;;;;;2.00;1.80;;;;;;;;;;5034783;28;20266;-46
2021/10/04 08:02:23;;;;;;;3.05;1.80;;;;;;;;;;5034516;28;20279;-46
2021/10/04 08:04:48;;;;;;;1.80;1.70;;;;;;;;;;5032381;28;20577;-46
2021/10/04 08:07:15;;;;;;;1.90;1.80;;;;;;;;;;5031976;28;20265;-46
2021/10/04 08:09:41;;;;;;;2.05;1.85;;;;;;;;;;5027123;28;20183;-46
2021/10/04 08:12:07;;;;;;;2.05;1.83;;;;;;;;;;5033573;28;20735;-47
2021/10/04 08:14:34;;;;;;;1.67;1.58;;;;;;;;;;5014979;28;20168;-46
2021/10/04 08:17:00;;;;;;;1.60;1.50;;;;;;;;;;5025327;28;20558;-46
2021/10/04 08:19:26;;;;;;;1.90;1.77;;;;;;;;;;5037362;28;20449;-46
2021/10/04 08:21:53;;;;;;;1.67;1.58;;;;;;;;;;5032386;28;20250;-46
2021/10/04 08:24:20;;;;;;;1.65;1.50;;;;;;;;;;5023915;28;20179;-46
2021/10/04 08:26:46;;;;;;;1.80;1.55;;;;;;;;;;5037026;28;20262;-46
2021/10/04 08:29:13;;;;;;;1.40;1.30;;;;;;;;;;5031839;28;20613;-46
2021/10/04 08:31:39;;;;;;;1.63;1.52;;;;;;;;;;5032355;28;20431;-46
2021/10/04 08:34:06;;;;;;;2.95;1.33;;;;;;;;;;5021340;28;20179;-46
2021/10/04 08:36:32;;;;;;;1.33;1.23;;;;;;;;;;5023001;28;20520;-46
2021/10/04 08:38:58;;;;;;;1.67;1.48;;;;;;;;;;5036763;28;20188;-46
2021/10/04 08:41:24;;;;;;;1.75;1.40;;;;;;;;;;5038628;28;20184;-46
2021/10/04 08:43:51;;;;;;;1.27;1.17;;;;;;;;;;5020233;28;20201;-46
2021/10/04 08:46:18;;;;;;;1.42;1.30;;;;;;;;;;5028292;28;20182;-46
2021/10/04 08:48:44;;;;;;;1.35;1.25;;;;;;;;;;5033162;28;20223;-46
2021/10/04 08:51:10;;;;;;;1.58;1.20;;;;;;;;;;5041119;28;20187;-46
2021/10/04 08:53:37;;;;;;;1.50;1.40;;;;;;;;;;5035847;28;20195;-46
2021/10/04 08:56:03;;;;;;;1.30;1.20;;;;;;;;;;5048494;28;20569;-46
2021/10/04 08:58:32;;;;;;;1.73;1.25;;;;;;;;;;5018111;28;20184;-46
2021/10/04 09:00:58;;;;;;;1.45;1.30;;;;;;;;;;5037524;28;20187;-46
2021/10/04 09:03:24;;;;;;;1.38;1.20;;;;;;;;;;5040382;28;20270;-46
2021/10/04 09:05:57;;;;;;;1.98;1.00;;;;;;;;;;5044590;28;20209;-46
2021/10/04 09:08:23;;;;;;;0.90;0.90;;;;;;;;;;5038972;28;20394;-46
2021/10/04 09:10:55;;;;;;;1.30;0.88;;;;;;;;;;5046141;28;20480;-46
2021/10/04 09:13:21;;;;;;;0.70;0.70;;;;;;;;;;5042194;28;20587;-46
2021/10/04 09:15:51;;;;;;;0.90;0.90;;;;;;;;;;5034459;28;20548;-46
2021/10/04 09:18:26;;;;;;;1.10;0.98;;;;;;;;;;5023569;28;20185;-47
2021/10/04 09:20:53;;;;;;;0.80;0.80;;;;;;;;;;5021223;28;20538;-46
2021/10/04 09:23:44;;;;;;;0.70;0.70;;;;;;;;;;5032923;28;20175;-46
2021/10/04 09:26:10;;;;;;;1.00;0.90;;;;;;;;;;5033667;28;20167;-46
2021/10/04 09:28:38;;;;;;;0.80;0.50;;;;;;;;;;5033647;28;20215;-47
2021/10/04 09:31:23;;;;;;;0.50;0.50;;;;;;;;;;5029019;28;20188;-46
2021/10/04 09:34:04;;;;;;;1.05;0.73;;;;;;;;;;5014982;28;20180;-46
2021/10/04 09:36:51;;;;;;;0.70;0.70;;;;;;;;;;5030373;28;20256;-46
2021/10/04 09:39:16;;;;;;;1.48;0.50;;;;;;;;;;5014399;28;20180;-46
2021/10/04 09:41:55;;;;;;;0.85;0.60;;;;;;;;;;5017666;28;20646;-46
2021/10/04 09:44:21;;;;;;;0.55;0.55;;;;;;;;;;5033460;28;20266;-46
2021/10/04 09:46:47;;;;;;;0.52;0.50;;;;;;;;;;5034184;28;20325;-46
2021/10/04 09:49:13;;;;;;;0.60;0.40;;;;;;;;;;5024405;28;20194;-46
2021/10/04 09:51:51;;;;;;;0.80;0.80;;;;;;;;;;5033570;28;20251;-46
2021/10/04 09:54:17;;;;;;;0.60;0.60;;;;;;;;;;5019916;28;20211;-46
2021/10/04 09:56:44;;;;;;;1.05;0.55;;;;;;;;;;5014464;28;20587;-46
2021/10/04 09:59:10;;;;;;;0.88;0.70;;;;;;;;;;5014329;28;20330;-46
2021/10/04 10:01:37;;;;;;;1.75;0.80;;;;;;;;;;5030164;28;20196;-46
2021/10/04 10:04:03;;;;;;;1.20;0.50;;;;;;;;;;5028349;28;20222;-46
2021/10/04 10:06:33;;;;;;;0.60;0.60;;;;;;;;;;5017487;28;20181;-46
2021/10/04 10:08:59;;;;;;;0.60;0.60;;;;;;;;;;5014442;28;20556;-46
2021/10/04 10:11:28;;;;;;;0.60;0.60;;;;;;;;;;5014457;28;20198;-46
2021/10/04 10:13:54;;;;;;;1.00;0.70;;;;;;;;;;5017435;28;20195;-46
2021/10/04 10:16:23;;;;;;;0.82;0.60;;;;;;;;;;5017817;28;20453;-46
2021/10/04 10:19:07;;;;;;;1.70;0.60;;;;;;;;;;5036957;28;20180;-46
2021/10/04 10:21:34;;;;;;;0.32;0.32;;;;;;;;;;5037500;28;20172;-46
2021/10/04 10:24:04;;;;;;;1.75;0.52;;;;;;;;;;5036633;28;20186;-46
2021/10/04 10:26:37;;;;;;;1.65;0.55;;;;;;;;;;5036305;28;20909;-46
2021/10/04 10:29:12;;;;;;;1.30;0.60;;;;;;;;;;5020334;28;20185;-46
2021/10/04 10:31:51;;;;;;;2.25;0.95;;;;;;;;;;5017706;28;20556;-46
2021/10/04 10:34:32;;;;;;;1.38;1.00;;;;;;;;;;5021387;28;20172;-46
2021/10/04 10:36:58;;;;;;;1.38;1.00;;;;;;;;;;5037159;28;20192;-46
2021/10/04 10:39:35;;;;;;;1.35;1.00;;;;;;;;;;5037059;28;20171;-46
2021/10/04 10:42:13;;;;;;;1.60;1.08;;;;;;;;;;5028412;28;20208;-46
2021/10/04 10:44:57;;;;;;;1.08;0.80;;;;;;;;;;5016781;28;20200;-46
2021/10/04 10:47:35;;;;;;;3.42;0.68;;;;;;;;;;5017318;28;20219;-46
2021/10/04 10:50:20;;;;;;;0.70;0.70;;;;;;;;;;5016970;28;20173;-46
2021/10/04 10:52:47;;;;;;;1.23;0.95;;;;;;;;;;5025072;28;20180;-46
2021/10/04 10:55:19;;;;;;;1.65;0.93;;;;;;;;;;5022939;28;20252;-46
2021/10/04 10:57:52;;;;;;;2.88;1.10;;;;;;;;;;5022464;28;20192;-46
2021/10/04 11:00:18;;;;;;;0.85;0.70;;;;;;;;;;5016613;28;20460;-46
2021/10/04 11:02:51;;;;;;;1.70;1.00;;;;;;;;;;5022095;28;20187;-46
2021/10/04 11:05:32;;;;;;;1.10;0.73;;;;;;;;;;5032530;28;20195;-46
2021/10/04 11:07:58;;;;;;;0.80;0.80;;;;;;;;;;5035977;28;20207;-46
2021/10/04 11:10:24;;;;;;;0.98;0.85;;;;;;;;;;5036467;28;20221;-46
2021/10/04 11:13:09;;;;;;;1.80;0.90;;;;;;;;;;5029166;28;20270;-46
2021/10/04 11:15:36;;;;;;;1.10;1.00;;;;;;;;;;5017808;28;20565;-46
2021/10/04 11:18:02;;;;;;;0.80;0.73;;;;;;;;;;5017037;28;20231;-49
2021/10/04 11:20:28;;;;;;;1.85;0.90;;;;;;;;;;5016681;28;20180;-46
2021/10/04 11:23:04;;;;;;;1.20;1.08;;;;;;;;;;5015500;28;20215;-46
2021/10/04 11:25:31;;;;;;;0.98;0.90;;;;;;;;;;5016443;28;20172;-46
2021/10/04 11:27:57;;;;;;;1.05;0.95;;;;;;;;;;5016501;28;20548;-46
2021/10/04 11:30:23;;;;;;;1.05;0.90;;;;;;;;;;5020795;28;20287;-46
2021/10/04 11:33:08;;;;;;;0.98;0.63;;;;;;;;;;5035297;28;20229;-46
2021/10/04 11:35:35;;;;;;;0.70;0.60;;;;;;;;;;5036135;28;20164;-46
2021/10/04 11:38:07;;;;;;;1.17;0.88;;;;;;;;;;5035524;28;20274;-46
2021/10/04 11:40:33;;;;;;;0.95;0.90;;;;;;;;;;5035749;28;20187;-46
2021/10/04 11:43:03;;;;;;;0.65;0.65;;;;;;;;;;5030782;28;20184;-46
2021/10/04 11:45:29;;;;;;;1.63;1.00;;;;;;;;;;5035787;28;20192;-46
2021/10/04 11:47:56;;;;;;;1.85;0.77;;;;;;;;;;5034576;28;20223;-46
2021/10/04 11:50:22;;;;;;;0.98;0.90;;;;;;;;;;5033822;28;20175;-46
2021/10/04 11:52:50;;;;;;;1.35;0.90;;;;;;;;;;5035489;28;20257;-46
2021/10/04 11:55:16;;;;;;;0.70;0.70;;;;;;;;;;5034849;28;20255;-46
2021/10/04 11:57:42;;;;;;;1.60;0.88;;;;;;;;;;5035666;28;20258;-46
2021/10/04 12:00:12;;;;;;;0.98;0.80;;;;;;;;;;5035778;28;20271;-46
2021/10/04 12:02:40;;;;;;;0.88;0.75;;;;;;;;;;5035332;28;20195;-46
2021/10/04 12:05:08;;;;;;;2.10;0.80;;;;;;;;;;5028546;28;20244;-46
2021/10/04 12:07:35;;;;;;;1.88;0.80;;;;;;;;;;5035589;28;20196;-46
2021/10/04 12:10:01;;;;;;;1.20;0.85;;;;;;;;;;5035809;28;20165;-46
2021/10/04 12:12:34;;;;;;;1.13;1.00;;;;;;;;;;5035663;28;20172;-46
2021/10/04 12:15:01;;;;;;;1.23;0.90;;;;;;;;;;5035162;28;20168;-46
2021/10/04 12:17:27;;;;;;;1.45;0.80;;;;;;;;;;5035488;28;20893;-46
2021/10/04 12:19:53;;;;;;;1.38;1.17;;;;;;;;;;5028410;28;20440;-46
2021/10/04 12:22:32;;;;;;;1.98;1.08;;;;;;;;;;5015626;28;20172;-46
2021/10/04 12:24:58;;;;;;;1.90;1.10;;;;;;;;;;5015148;28;20685;-46
2021/10/04 12:27:24;;;;;;;1.00;0.90;;;;;;;;;;5015700;28;20207;-46
2021/10/04 12:29:57;;;;;;;1.30;1.20;;;;;;;;;;5015423;28;20200;-46
2021/10/04 12:32:45;;;;;;;2.05;1.10;;;;;;;;;;5015526;28;20172;-46
2021/10/04 12:35:14;;;;;;;1.13;0.98;;;;;;;;;;5014726;28;20181;-46
2021/10/04 12:37:55;;;;;;;1.27;0.90;;;;;;;;;;5016580;28;20184;-46
2021/10/04 12:40:25;;;;;;;0.77;0.75;;;;;;;;;;5015255;28;20172;-46
2021/10/04 12:42:57;;;;;;;1.02;0.70;;;;;;;;;;5015071;28;20169;-46
2021/10/04 12:45:23;;;;;;;1.00;0.73;;;;;;;;;;5015271;28;20188;-46
2021/10/04 12:48:01;;;;;;;1.15;0.80;;;;;;;;;;5015312;28;20204;-46
2021/10/04 12:50:29;;;;;;;0.93;0.93;;;;;;;;;;5015239;28;20195;-47
2021/10/04 12:53:10;;;;;;;0.70;0.57;;;;;;;;;;5015401;28;20444;-47
2021/10/04 12:55:55;;;;;;;1.45;0.93;;;;;;;;;;5021824;28;20254;-46
2021/10/04 12:58:21;;;;;;;0.50;0.50;;;;;;;;;;5015748;28;20196;-46
2021/10/04 13:00:48;;;;;;;1.17;0.70;;;;;;;;;;5016272;28;20483;-46
2021/10/04 13:03:14;;;;;;;0.57;0.50;;;;;;;;;;5020816;28;20225;-47
2021/10/04 13:05:40;;;;;;;0.60;0.60;;;;;;;;;;5030334;28;20211;-47
2021/10/04 13:08:06;;;;;;;0.82;0.80;;;;;;;;;;5031079;28;20206;-46
2021/10/04 13:10:32;;;;;;;2.03;0.73;;;;;;;;;;5038232;28;20179;-46
2021/10/04 13:13:00;;;;;;;1.08;0.70;;;;;;;;;;5031394;28;20176;-46
2021/10/04 13:15:27;;;;;;;1.25;0.70;;;;;;;;;;5015521;28;20177;-46
2021/10/04 13:17:53;;;;;;;0.93;0.70;;;;;;;;;;5034013;28;20449;-46
2021/10/04 13:20:19;;;;;;;1.10;1.00;;;;;;;;;;5038724;28;20189;-46
2021/10/04 13:22:45;;;;;;;1.23;0.90;;;;;;;;;;5034683;28;20180;-46
2021/10/04 13:25:12;;;;;;;1.20;1.00;;;;;;;;;;5019524;28;20555;-46
2021/10/04 13:27:38;;;;;;;1.30;1.20;;;;;;;;;;5027241;28;20231;-46
2021/10/04 13:30:06;;;;;;;2.60;1.08;;;;;;;;;;5014841;28;20207;-46
2021/10/04 13:32:32;;;;;;;0.90;0.77;;;;;;;;;;5014820;28;20184;-46
2021/10/04 13:34:58;;;;;;;1.25;0.90;;;;;;;;;;5026025;28;20183;-46
2021/10/04 13:37:24;;;;;;;2.03;1.00;;;;;;;;;;5014823;28;20188;-46
2021/10/04 13:39:50;;;;;;;5.60;1.50;;;;;;;;;;5018102;28;20184;-46
2021/10/04 13:42:16;;;;;;;5.70;1.20;;;;;;;;;;5027580;28;20186;-46
2021/10/04 13:44:42;;;;;;;3.00;1.20;;;;;;;;;;5031850;28;20194;-46
2021/10/04 13:47:08;;;;;;;1.27;0.90;;;;;;;;;;5029588;28;20468;-46
2021/10/04 13:49:34;;;;;;;1.67;0.90;;;;;;;;;;5037539;28;20172;-46
2021/10/04 13:52:00;;;;;;;1.67;1.15;;;;;;;;;;5028420;28;20185;-46
2021/10/04 13:54:26;;;;;;;2.30;1.02;;;;;;;;;;5025360;28;20196;-46
2021/10/04 13:56:52;;;;;;;2.35;0.85;;;;;;;;;;5031422;28;20259;-46
2021/10/04 13:59:18;;;;;;;4.57;1.80;;;;;;;;;;5019806;28;20180;-46
2021/10/04 14:01:45;;;;;;;2.05;1.85;;;;;;;;;;5024105;28;20278;-46
2021/10/04 14:04:11;;;;;;;2.88;2.25;;;;;;;;;;5036263;28;20753;-46
2021/10/04 14:06:37;;;;;;;4.63;2.40;;;;;;;;;;5028590;28;20177;-46
2021/10/04 14:09:03;;;;;;;3.67;2.30;;;;;;;;;;5029614;28;20581;-46
2021/10/04 14:11:29;;;;;;;5.85;2.40;;;;;;;;;;5023225;28;20188;-46
2021/10/04 14:13:55;;;;;;;13.25;6.43;;;;;;;;;;5018367;28;20184;-46
2021/10/04 14:16:21;;;;;;;9.77;6.22;;;;;;;;;;5028629;28;20168;-46
2021/10/04 14:18:47;;;;;;;13.00;6.88;;;;;;;;;;5026387;28;20466;-46
2021/10/04 14:21:13;;;;;;;13.23;6.32;;;;;;;;;;5037683;28;20199;-46
2021/10/04 14:23:40;;;;;;;11.20;6.90;;;;;;;;;;5033674;28;20172;-46
2021/10/04 14:26:05;;;;;;;14.07;7.70;;;;;;;;;;5024934;28;20567;-46
2021/10/04 14:28:31;;;;;;;19.30;9.18;;;;;;;;;;5037185;28;20214;-46
2021/10/04 14:30:57;;;;;;;17.10;9.43;;;;;;;;;;5030287;28;20226;-46
2021/10/04 14:33:26;;;;;;;19.65;9.32;;;;;;;;;;5032049;28;20214;-46
2021/10/04 14:35:53;;;;;;;13.95;8.25;;;;;;;;;;5037379;28;20172;-46
2021/10/04 14:38:19;;;;;;;16.60;7.97;;;;;;;;;;5036239;28;20450;-46
2021/10/04 14:40:46;;;;;;;14.15;7.13;;;;;;;;;;5037250;28;20255;-46
2021/10/04 14:43:12;;;;;;;13.38;7.07;;;;;;;;;;5036225;28;20180;-46
2021/10/04 14:45:38;;;;;;;14.93;6.35;;;;;;;;;;5033878;28;20180;-46